Pagrindinis puslapis
METAR-TAF:

METAR-TAF

Oro uostai :

Florianopolis, Santa Katarina, Brazilija

platuma: 27-40S, ilguma: 048-33W, Aukštis: 5 m

Dabartinis oras

Ataskaita buvo paskelbta 28 minutes, ne 01:00 UTC
Vėjas 3 kt iš Vakarų/Šiaurės Vakarų
Temperatūra 24°C
Drėgmė 83%
Slėgis 1019 hPa
Matomumas 10 km arba daugiau
nėra debesų žemiau 1500 m ir nėra kamuolinių lietaus debesų

METAR: SBFL 290100Z 30003KT CAVOK 24/21 Q1019

Laikas: 22:28 (01:28 UTC)

Prognozė

Ataskaita buvo paskelbta 4 valandos ir 28 minutes, ne 21:00 UTC
Prognozė galioja nuo 29 metu 00 UTC su 29 metu 24 UTC
Vėjas 8 kt iš Pietų
Matomumas: 8000 m
Išsisklaidę debesys ne aukštis 1500 ft
Laikinai
nuo 29 metu 02 UTC su 29 metu 06 UTC
Su prošvaistėmis ne aukštis 1200 ft
Tapsmas
nuo 29 metu 12 UTC su 29 metu 14 UTC
Matomumas: 8000 m
Išsisklaidę debesys ne aukštis 2000 ft

TAF: SBFL 282100Z 2900/2924 18008KT 8000 SCT015 TN23/2904Z TX25/2916Z TEMPO 2902/2906 BKN012 BECMG 2912/2914 8000 NSW SCT020 RMK PEA

Orai ataskaitas ir orų prognozės (METAR, TAF).

turimą stotys yra geltonos ir raudonos taškus žemėlapyje.

Perkelti pele per norėdami pamatyti stoties vardą.

Tada spustelėkite, norėdami matyti oro stebėjimo ir prognozės.

Norėdami pakeisti žemėlapį: spustelėkite ant žalios mygtukų su juodo kryžiaus žemyn,; žalią mygtuką su brūkšneliu, jei norite nutolinti; arba žalių rodyklių gretimoms žemėlapius.


METAR-TAF: